sensor_id;sensor_type;location;lat;lon;timestamp;pressure;altitude;pressure_sealevel;temperature;humidity
31403;BME280;18039;52.188;21.024;2023-03-23T00:00:00;76136.81;;;-141.45;90.75
31403;BME280;18039;52.188;21.024;2023-03-23T00:02:28;76138.84;;;-141.45;90.80
31403;BME280;18039;52.188;21.024;2023-03-23T00:04:55;76132.78;;;-141.45;90.91
31403;BME280;18039;52.188;21.024;2023-03-23T00:07:22;76142.91;;;-141.45;90.74
31403;BME280;18039;52.188;21.024;2023-03-23T00:09:54;76136.81;;;-141.45;90.78
31403;BME280;18039;52.188;21.024;2023-03-23T00:12:21;76138.84;;;-141.45;91.02
31403;BME280;18039;52.188;21.024;2023-03-23T00:15:04;76134.78;;;-141.45;91.03
31403;BME280;18039;52.188;21.024;2023-03-23T00:17:31;76138.84;;;-141.45;90.70
31403;BME280;18039;52.188;21.024;2023-03-23T00:19:59;76142.91;;;-141.45;90.86
31403;BME280;18039;52.188;21.024;2023-03-23T00:22:28;76159.13;;;-141.45;90.94
31403;BME280;18039;52.188;21.024;2023-03-23T00:24:54;76163.19;;;-141.45;90.77
31403;BME280;18039;52.188;21.024;2023-03-23T00:27:22;76175.34;;;-141.45;90.94
31403;BME280;18039;52.188;21.024;2023-03-23T00:29:49;76175.34;;;-141.45;91.35
31403;BME280;18039;52.188;21.024;2023-03-23T00:32:20;76179.38;;;-141.45;91.70
31403;BME280;18039;52.188;21.024;2023-03-23T00:34:53;76187.50;;;-141.45;91.93
31403;BME280;18039;52.188;21.024;2023-03-23T00:37:21;76187.50;;;-141.45;92.16
31403;BME280;18039;52.188;21.024;2023-03-23T00:39:48;76183.44;;;-141.45;92.39
31403;BME280;18039;52.188;21.024;2023-03-23T00:42:15;76179.38;;;-141.45;92.24
31403;BME280;18039;52.188;21.024;2023-03-23T00:44:42;76177.38;;;-141.45;92.51
31403;BME280;18039;52.188;21.024;2023-03-23T00:47:10;76169.25;;;-141.45;92.72
31403;BME280;18039;52.188;21.024;2023-03-23T00:49:38;76159.13;;;-141.45;92.54
31403;BME280;18039;52.188;21.024;2023-03-23T00:52:05;76151.00;;;-141.45;92.40
31403;BME280;18039;52.188;21.024;2023-03-23T00:54:32;76138.84;;;-141.45;92.31
31403;BME280;18039;52.188;21.024;2023-03-23T00:57:00;76126.69;;;-141.45;92.06
31403;BME280;18039;52.188;21.024;2023-03-23T00:59:26;76122.63;;;-141.45;92.04
31403;BME280;18039;52.188;21.024;2023-03-23T01:01:52;76118.59;;;-141.45;91.94
31403;BME280;18039;52.188;21.024;2023-03-23T01:04:18;76106.41;;;-141.45;91.60
31403;BME280;18039;52.188;21.024;2023-03-23T01:06:50;76110.47;;;-141.45;91.37
31403;BME280;18039;52.188;21.024;2023-03-23T01:09:18;76104.41;;;-141.45;91.35
31403;BME280;18039;52.188;21.024;2023-03-23T01:11:50;76098.31;;;-141.45;91.23
31403;BME280;18039;52.188;21.024;2023-03-23T01:14:18;76098.31;;;-141.45;91.01
31403;BME280;18039;52.188;21.024;2023-03-23T01:16:44;76102.38;;;-141.45;91.30
31403;BME280;18039;52.188;21.024;2023-03-23T01:19:11;76098.31;;;-141.45;91.12
31403;BME280;18039;52.188;21.024;2023-03-23T01:21:37;76100.34;;;-141.45;91.14
31403;BME280;18039;52.188;21.024;2023-03-23T01:24:03;76092.25;;;-141.45;91.16
31403;BME280;18039;52.188;21.024;2023-03-23T01:26:29;76094.25;;;-141.45;90.90
31403;BME280;18039;52.188;21.024;2023-03-23T01:28:56;76098.31;;;-141.45;91.06
31403;BME280;18039;52.188;21.024;2023-03-23T01:31:24;76106.41;;;-141.45;90.95
31403;BME280;18039;52.188;21.024;2023-03-23T01:33:51;76106.41;;;-141.45;90.72
31403;BME280;18039;52.188;21.024;2023-03-23T01:36:20;76102.38;;;-141.45;90.62
31403;BME280;18039;52.188;21.024;2023-03-23T01:38:49;76102.38;;;-141.45;90.68
31403;BME280;18039;52.188;21.024;2023-03-23T01:41:17;76110.47;;;-141.45;90.96
31403;BME280;18039;52.188;21.024;2023-03-23T01:43:57;76110.47;;;-141.45;91.36
31403;BME280;18039;52.188;21.024;2023-03-23T01:46:28;76114.53;;;-141.45;91.16
31403;BME280;18039;52.188;21.024;2023-03-23T01:48:56;76122.63;;;-141.45;91.32
31403;BME280;18039;52.188;21.024;2023-03-23T01:51:24;76122.63;;;-141.45;91.39
31403;BME280;18039;52.188;21.024;2023-03-23T01:53:58;76138.84;;;-141.45;91.60
31403;BME280;18039;52.188;21.024;2023-03-23T01:56:31;76130.75;;;-141.45;91.77
31403;BME280;18039;52.188;21.024;2023-03-23T01:58:59;76128.72;;;-141.45;91.57
31403;BME280;18039;52.188;21.024;2023-03-23T02:01:26;76126.69;;;-141.45;91.88
31403;BME280;18039;52.188;21.024;2023-03-23T02:03:55;76130.75;;;-141.45;91.94
31403;BME280;18039;52.188;21.024;2023-03-23T02:06:23;76126.69;;;-141.45;91.92
31403;BME280;18039;52.188;21.024;2023-03-23T02:09:05;76130.75;;;-141.45;91.96
31403;BME280;18039;52.188;21.024;2023-03-23T02:11:32;76130.75;;;-141.45;92.13
31403;BME280;18039;52.188;21.024;2023-03-23T02:13:59;76132.78;;;-141.45;92.33
31403;BME280;18039;52.188;21.024;2023-03-23T02:22:29;76132.78;;;-141.45;92.57
31403;BME280;18039;52.188;21.024;2023-03-23T02:30:51;76130.75;;;-141.45;92.80
31403;BME280;18039;52.188;21.024;2023-03-23T02:36:17;76122.63;;;-141.45;92.94
31403;BME280;18039;52.188;21.024;2023-03-23T02:39:05;76130.75;;;-141.45;92.80
31403;BME280;18039;52.188;21.024;2023-03-23T02:41:43;76134.78;;;-141.45;92.89
31403;BME280;18039;52.188;21.024;2023-03-23T02:44:12;76130.75;;;-141.45;92.95
31403;BME280;18039;52.188;21.024;2023-03-23T02:46:40;76126.69;;;-141.45;93.02
31403;BME280;18039;52.188;21.024;2023-03-23T02:49:09;76122.63;;;-141.45;92.93
31403;BME280;18039;52.188;21.024;2023-03-23T02:51:37;76118.59;;;-141.45;93.14
31403;BME280;18039;52.188;21.024;2023-03-23T02:54:05;76118.59;;;-141.45;93.07
31403;BME280;18039;52.188;21.024;2023-03-23T02:56:34;76118.59;;;-141.45;93.36
31403;BME280;18039;52.188;21.024;2023-03-23T02:59:03;76118.59;;;-141.45;93.35
31403;BME280;18039;52.188;21.024;2023-03-23T03:04:00;76122.63;;;-141.45;93.30
31403;BME280;18039;52.188;21.024;2023-03-23T03:06:36;76118.59;;;-141.45;93.47
31403;BME280;18039;52.188;21.024;2023-03-23T03:11:36;76118.59;;;-141.45;93.07
31403;BME280;18039;52.188;21.024;2023-03-23T03:14:08;76114.53;;;-141.45;93.13
31403;BME280;18039;52.188;21.024;2023-03-23T03:16:45;76114.53;;;-141.45;93.12
31403;BME280;18039;52.188;21.024;2023-03-23T03:21:45;76114.53;;;-141.45;93.01
31403;BME280;18039;52.188;21.024;2023-03-23T03:24:17;76116.56;;;-141.45;93.30
31403;BME280;18039;52.188;21.024;2023-03-23T03:26:51;76112.50;;;-141.45;93.11
31403;BME280;18039;52.188;21.024;2023-03-23T03:29:26;76126.69;;;-141.45;93.19
31403;BME280;18039;52.188;21.024;2023-03-23T03:31:58;76130.75;;;-141.45;93.57
31403;BME280;18039;52.188;21.024;2023-03-23T03:34:26;76130.75;;;-141.45;93.60
31403;BME280;18039;52.188;21.024;2023-03-23T03:36:54;76138.84;;;-141.45;93.65
31403;BME280;18039;52.188;21.024;2023-03-23T03:39:25;76151.00;;;-141.45;93.59
31403;BME280;18039;52.188;21.024;2023-03-23T03:41:52;76151.00;;;-141.45;93.73
31403;BME280;18039;52.188;21.024;2023-03-23T03:44:20;76159.13;;;-141.45;93.99
31403;BME280;18039;52.188;21.024;2023-03-23T03:46:46;76163.19;;;-141.45;93.96
31403;BME280;18039;52.188;21.024;2023-03-23T03:49:12;76167.22;;;-141.45;94.17
31403;BME280;18039;52.188;21.024;2023-03-23T03:51:41;76167.22;;;-141.45;94.31
31403;BME280;18039;52.188;21.024;2023-03-23T03:54:12;76173.31;;;-141.45;94.68
31403;BME280;18039;52.188;21.024;2023-03-23T03:56:39;76181.41;;;-141.45;94.78
31403;BME280;18039;52.188;21.024;2023-03-23T03:59:26;76179.38;;;-141.45;94.53
31403;BME280;18039;52.188;21.024;2023-03-23T04:02:25;76175.34;;;-141.45;94.66
31403;BME280;18039;52.188;21.024;2023-03-23T04:04:52;76169.25;;;-141.45;94.76
31403;BME280;18039;52.188;21.024;2023-03-23T04:07:19;76171.28;;;-141.45;94.76
31403;BME280;18039;52.188;21.024;2023-03-23T04:09:47;76175.34;;;-141.45;95.07
31403;BME280;18039;52.188;21.024;2023-03-23T04:12:16;76175.34;;;-141.45;95.05
31403;BME280;18039;52.188;21.024;2023-03-23T04:15:03;76175.34;;;-141.45;95.40
31403;BME280;18039;52.188;21.024;2023-03-23T04:17:34;76179.38;;;-141.45;95.25
31403;BME280;18039;52.188;21.024;2023-03-23T04:20:03;76175.34;;;-141.45;95.50
31403;BME280;18039;52.188;21.024;2023-03-23T04:22:38;76185.47;;;-141.45;95.62
31403;BME280;18039;52.188;21.024;2023-03-23T04:25:05;76183.44;;;-141.45;95.63
31403;BME280;18039;52.188;21.024;2023-03-23T04:27:36;76183.44;;;-141.45;95.63
31403;BME280;18039;52.188;21.024;2023-03-23T04:30:05;76183.44;;;-141.45;95.48
31403;BME280;18039;52.188;21.024;2023-03-23T04:32:39;76187.50;;;-141.45;95.79
31403;BME280;18039;52.188;21.024;2023-03-23T04:35:11;76187.50;;;-141.45;95.88
31403;BME280;18039;52.188;21.024;2023-03-23T04:37:43;76187.50;;;-141.45;95.99
31403;BME280;18039;52.188;21.024;2023-03-23T04:40:14;76187.50;;;-141.45;95.97
31403;BME280;18039;52.188;21.024;2023-03-23T04:42:46;76187.50;;;-141.45;96.10
31403;BME280;18039;52.188;21.024;2023-03-23T04:45:35;76195.59;;;-141.45;96.18
31403;BME280;18039;52.188;21.024;2023-03-23T04:48:05;76191.56;;;-141.45;96.04
31403;BME280;18039;52.188;21.024;2023-03-23T04:50:40;76199.66;;;-141.45;96.03
31403;BME280;18039;52.188;21.024;2023-03-23T04:53:16;76187.50;;;-141.45;96.14
31403;BME280;18039;52.188;21.024;2023-03-23T04:55:44;76183.44;;;-141.45;96.27
31403;BME280;18039;52.188;21.024;2023-03-23T04:58:13;76187.50;;;-141.45;96.27
31403;BME280;18039;52.188;21.024;2023-03-23T05:01:06;76179.38;;;-141.45;96.00
31403;BME280;18039;52.188;21.024;2023-03-23T05:03:37;76167.22;;;-141.45;96.10
31403;BME280;18039;52.188;21.024;2023-03-23T05:06:04;76163.19;;;-141.45;96.13
31403;BME280;18039;52.188;21.024;2023-03-23T05:08:31;76159.13;;;-141.45;96.21
31403;BME280;18039;52.188;21.024;2023-03-23T05:10:59;76155.06;;;-141.45;95.98
31403;BME280;18039;52.188;21.024;2023-03-23T05:13:28;76142.91;;;-141.45;95.75
31403;BME280;18039;52.188;21.024;2023-03-23T05:15:57;76134.78;;;-141.45;95.55
31403;BME280;18039;52.188;21.024;2023-03-23T05:18:24;76122.63;;;-141.45;95.62
31403;BME280;18039;52.188;21.024;2023-03-23T05:20:52;76118.59;;;-141.45;95.15
31403;BME280;18039;52.188;21.024;2023-03-23T05:23:21;76108.44;;;-141.45;94.93
31403;BME280;18039;52.188;21.024;2023-03-23T05:25:55;76106.41;;;-141.45;94.82
31403;BME280;18039;52.188;21.024;2023-03-23T05:28:23;76086.16;;;-141.45;94.35
31403;BME280;18039;52.188;21.024;2023-03-23T05:30:56;76086.16;;;-141.45;93.91
31403;BME280;18039;52.188;21.024;2023-03-23T05:33:27;76069.94;;;-141.45;93.39
31403;BME280;18039;52.188;21.024;2023-03-23T05:36:02;76057.78;;;-141.45;93.29
31403;BME280;18039;52.188;21.024;2023-03-23T05:38:38;76055.75;;;-141.45;93.11
31403;BME280;18039;52.188;21.024;2023-03-23T05:41:06;76055.75;;;-141.45;92.86
31403;BME280;18039;52.188;21.024;2023-03-23T05:43:40;76043.59;;;-141.45;92.47
31403;BME280;18039;52.188;21.024;2023-03-23T05:46:25;76037.50;;;-141.45;92.18
31403;BME280;18039;52.188;21.024;2023-03-23T05:48:56;76029.41;;;-141.45;91.90
31403;BME280;18039;52.188;21.024;2023-03-23T05:51:29;76027.38;;;-141.45;91.49
31403;BME280;18039;52.188;21.024;2023-03-23T05:53:56;76017.25;;;-141.45;91.41
31403;BME280;18039;52.188;21.024;2023-03-23T05:56:22;76009.13;;;-141.45;91.33
31403;BME280;18039;52.188;21.024;2023-03-23T05:59:08;76001.03;;;-141.45;90.69
31403;BME280;18039;52.188;21.024;2023-03-23T06:01:35;75992.94;;;-141.45;90.50
31403;BME280;18039;52.188;21.024;2023-03-23T06:04:01;75984.81;;;-141.45;90.15
31403;BME280;18039;52.188;21.024;2023-03-23T06:06:37;75972.66;;;-141.45;89.86
31403;BME280;18039;52.188;21.024;2023-03-23T06:09:08;75976.72;;;-141.45;89.51
31403;BME280;18039;52.188;21.024;2023-03-23T06:11:59;75966.56;;;-141.45;89.00
31403;BME280;18039;52.188;21.024;2023-03-23T06:14:36;75960.50;;;-141.45;89.13
31403;BME280;18039;52.188;21.024;2023-03-23T06:17:04;75956.44;;;-141.45;88.67
31403;BME280;18039;52.188;21.024;2023-03-23T06:19:30;75948.34;;;-141.45;88.50
31403;BME280;18039;52.188;21.024;2023-03-23T06:22:04;75948.34;;;-141.45;88.37
31403;BME280;18039;52.188;21.024;2023-03-23T06:25:02;75948.34;;;-141.45;87.60
31403;BME280;18039;52.188;21.024;2023-03-23T06:27:35;75936.19;;;-141.45;87.46
31403;BME280;18039;52.188;21.024;2023-03-23T06:30:04;75940.22;;;-141.45;87.63
31403;BME280;18039;52.188;21.024;2023-03-23T06:32:32;75919.97;;;-141.45;87.81
31403;BME280;18039;52.188;21.024;2023-03-23T06:34:59;75907.81;;;-141.45;87.72
31403;BME280;18039;52.188;21.024;2023-03-23T06:37:37;75887.53;;;-141.45;87.30
31403;BME280;18039;52.188;21.024;2023-03-23T06:40:10;75887.53;;;-141.45;87.10
31403;BME280;18039;52.188;21.024;2023-03-23T06:42:38;75867.28;;;-141.45;86.80
31403;BME280;18039;52.188;21.024;2023-03-23T06:45:24;75859.16;;;-141.45;86.24
31403;BME280;18039;52.188;21.024;2023-03-23T06:47:59;75842.94;;;-141.45;85.99
31403;BME280;18039;52.188;21.024;2023-03-23T06:50:27;75834.84;;;-141.45;85.62
31403;BME280;18039;52.188;21.024;2023-03-23T06:52:54;75818.63;;;-141.45;85.24
31403;BME280;18039;52.188;21.024;2023-03-23T06:55:21;75808.50;;;-141.45;84.91
31403;BME280;18039;52.188;21.024;2023-03-23T06:57:47;75798.38;;;-141.45;84.59
31403;BME280;18039;52.188;21.024;2023-03-23T07:00:14;75782.16;;;-141.45;84.19
31403;BME280;18039;52.188;21.024;2023-03-23T07:02:43;75767.97;;;-141.45;83.74
31403;BME280;18039;52.188;21.024;2023-03-23T07:05:11;75757.81;;;-141.45;82.88
31403;BME280;18039;52.188;21.024;2023-03-23T07:07:39;75749.72;;;-141.45;82.53
31403;BME280;18039;52.188;21.024;2023-03-23T07:10:26;75741.63;;;-141.45;82.13
31403;BME280;18039;52.188;21.024;2023-03-23T07:12:53;75725.41;;;-141.45;81.56
31403;BME280;18039;52.188;21.024;2023-03-23T07:15:19;75717.28;;;-141.45;81.39
31403;BME280;18039;52.188;21.024;2023-03-23T07:17:49;75701.09;;;-141.45;81.06
31403;BME280;18039;52.188;21.024;2023-03-23T07:20:38;75684.88;;;-141.45;80.70
31403;BME280;18039;52.188;21.024;2023-03-23T07:23:04;75680.81;;;-141.45;80.14
31403;BME280;18039;52.188;21.024;2023-03-23T07:25:48;75658.53;;;-141.45;79.76
31403;BME280;18039;52.188;21.024;2023-03-23T07:28:19;75648.41;;;-141.45;79.12
31403;BME280;18039;52.188;21.024;2023-03-23T07:30:47;75644.34;;;-141.45;78.79
31403;BME280;18039;52.188;21.024;2023-03-23T07:33:12;75636.22;;;-141.45;78.48
31403;BME280;18039;52.188;21.024;2023-03-23T07:35:39;75628.13;;;-141.45;78.22
31403;BME280;18039;52.188;21.024;2023-03-23T07:38:08;75624.06;;;-141.45;77.98
31403;BME280;18039;52.188;21.024;2023-03-23T07:40:36;75613.94;;;-141.45;76.04
31403;BME280;18039;52.188;21.024;2023-03-23T07:43:12;75607.88;;;-141.45;76.15
31403;BME280;18039;52.188;21.024;2023-03-23T07:45:59;75595.69;;;-141.45;76.22
31403;BME280;18039;52.188;21.024;2023-03-23T07:48:33;75589.63;;;-141.45;76.37
31403;BME280;18039;52.188;21.024;2023-03-23T07:50:59;75577.47;;;-141.45;76.42
31403;BME280;18039;52.188;21.024;2023-03-23T07:53:29;75557.19;;;-141.45;75.91
31403;BME280;18039;52.188;21.024;2023-03-23T07:56:08;75530.84;;;-141.45;75.33
31403;BME280;18039;52.188;21.024;2023-03-23T07:58:35;75506.53;;;-141.45;74.19
31403;BME280;18039;52.188;21.024;2023-03-23T08:01:02;75506.53;;;-141.45;71.98
31403;BME280;18039;52.188;21.024;2023-03-23T08:03:31;75502.50;;;-141.45;72.18
31403;BME280;18039;52.188;21.024;2023-03-23T08:06:20;75470.06;;;-141.45;70.04
31403;BME280;18039;52.188;21.024;2023-03-23T08:09:05;75461.97;;;-141.45;70.59
31403;BME280;18039;52.188;21.024;2023-03-23T08:11:54;75441.69;;;-141.45;70.07
31403;BME280;18039;52.188;21.024;2023-03-23T08:14:39;75435.63;;;-141.45;69.95
31403;BME280;18039;52.188;21.024;2023-03-23T08:17:42;75409.28;;;-141.45;69.50
31403;BME280;18039;52.188;21.024;2023-03-23T08:20:20;75384.97;;;-141.45;69.02
31403;BME280;18039;52.188;21.024;2023-03-23T08:23:11;75372.78;;;-141.45;67.62
31403;BME280;18039;52.188;21.024;2023-03-23T08:25:58;75332.28;;;-141.45;65.96
31403;BME280;18039;52.188;21.024;2023-03-23T08:28:45;75299.84;;;-141.45;65.65
31403;BME280;18039;52.188;21.024;2023-03-23T08:31:38;75263.38;;;-141.45;65.57
31403;BME280;18039;52.188;21.024;2023-03-23T08:34:23;75235.00;;;-141.45;64.94
31403;BME280;18039;52.188;21.024;2023-03-23T08:37:10;75212.72;;;-141.45;63.45
31403;BME280;18039;52.188;21.024;2023-03-23T08:40:15;75204.63;;;-141.45;63.53
31403;BME280;18039;52.188;21.024;2023-03-23T08:43:10;75198.53;;;-141.45;63.81
31403;BME280;18039;52.188;21.024;2023-03-23T08:45:57;75214.75;;;-141.45;61.98
31403;BME280;18039;52.188;21.024;2023-03-23T08:48:52;75210.69;;;-141.45;62.93
31403;BME280;18039;52.188;21.024;2023-03-23T08:51:58;75194.47;;;-141.45;62.63
31403;BME280;18039;52.188;21.024;2023-03-23T08:54:47;75186.38;;;-141.45;61.45
31403;BME280;18039;52.188;21.024;2023-03-23T08:57:35;75170.16;;;-141.45;61.22
31403;BME280;18039;52.188;21.024;2023-03-23T09:00:08;75164.09;;;-141.45;60.79
31403;BME280;18039;52.188;21.024;2023-03-23T09:02:58;75166.09;;;-141.45;60.20
31403;BME280;18039;52.188;21.024;2023-03-23T09:05:48;75153.94;;;-141.45;60.42
31403;BME280;18039;52.188;21.024;2023-03-23T09:08:23;75149.91;;;-141.45;60.50
31403;BME280;18039;52.188;21.024;2023-03-23T09:10:50;75147.88;;;-141.45;59.89
31403;BME280;18039;52.188;21.024;2023-03-23T09:13:16;75149.91;;;-141.45;59.65
31403;BME280;18039;52.188;21.024;2023-03-23T09:15:42;75149.91;;;-141.45;59.34
31403;BME280;18039;52.188;21.024;2023-03-23T09:18:09;75158.00;;;-141.45;59.48
31403;BME280;18039;52.188;21.024;2023-03-23T09:20:35;75160.03;;;-141.45;59.54
31403;BME280;18039;52.188;21.024;2023-03-23T09:23:03;75166.09;;;-141.45;59.52
31403;BME280;18039;52.188;21.024;2023-03-23T09:25:31;75170.16;;;-141.45;58.49
31403;BME280;18039;52.188;21.024;2023-03-23T09:27:58;75190.44;;;-141.45;58.44
31403;BME280;18039;52.188;21.024;2023-03-23T09:30:30;75184.34;;;-141.45;59.26
31403;BME280;18039;52.188;21.024;2023-03-23T09:33:00;75170.16;;;-141.45;59.27
31403;BME280;18039;52.188;21.024;2023-03-23T09:35:27;75145.84;;;-141.45;59.20
31403;BME280;18039;52.188;21.024;2023-03-23T09:37:54;75121.53;;;-141.45;58.71
31403;BME280;18039;52.188;21.024;2023-03-23T09:40:23;75107.34;;;-141.45;58.69
31403;BME280;18039;52.188;21.024;2023-03-23T09:42:59;75072.91;;;-141.45;58.33
31403;BME280;18039;52.188;21.024;2023-03-23T09:45:55;75056.69;;;-141.45;57.30
31403;BME280;18039;52.188;21.024;2023-03-23T09:48:42;75034.41;;;-141.45;56.73
31403;BME280;18039;52.188;21.024;2023-03-23T09:54:04;74999.97;;;-141.45;56.02
31403;BME280;18039;52.188;21.024;2023-03-23T09:56:34;74979.69;;;-141.45;55.59
31403;BME280;18039;52.188;21.024;2023-03-23T09:59:17;74969.56;;;-141.45;53.94
31403;BME280;18039;52.188;21.024;2023-03-23T10:01:53;74961.47;;;-141.45;54.47
31403;BME280;18039;52.188;21.024;2023-03-23T10:04:28;74959.44;;;-141.45;54.84
31403;BME280;18039;52.188;21.024;2023-03-23T10:06:59;74975.66;;;-141.45;54.39
31403;BME280;18039;52.188;21.024;2023-03-23T10:09:28;74985.78;;;-141.45;54.72
31403;BME280;18039;52.188;21.024;2023-03-23T10:12:02;75004.00;;;-141.45;54.71
31403;BME280;18039;52.188;21.024;2023-03-23T10:14:33;75008.06;;;-141.45;55.05
31403;BME280;18039;52.188;21.024;2023-03-23T10:22:38;75012.13;;;-141.45;55.05
31403;BME280;18039;52.188;21.024;2023-03-23T10:30:27;75012.13;;;-141.45;53.05
31403;BME280;18039;52.188;21.024;2023-03-23T10:33:03;75008.06;;;-141.45;52.65
31403;BME280;18039;52.188;21.024;2023-03-23T10:36:11;75008.06;;;-141.45;52.84
31403;BME280;18039;52.188;21.024;2023-03-23T10:38:52;74987.81;;;-141.45;52.27
31403;BME280;18039;52.188;21.024;2023-03-23T10:41:21;74937.16;;;-141.45;51.12
31403;BME280;18039;52.188;21.024;2023-03-23T10:43:47;74918.91;;;-141.45;50.67
31403;BME280;18039;52.188;21.024;2023-03-23T10:48:49;74858.13;;;-141.45;49.91
31403;BME280;18039;52.188;21.024;2023-03-23T10:51:19;74817.63;;;-141.45;49.70
31403;BME280;18039;52.188;21.024;2023-03-23T10:53:51;74789.25;;;-141.45;49.15
31403;BME280;18039;52.188;21.024;2023-03-23T10:56:43;74758.84;;;-141.45;48.85
31403;BME280;18039;52.188;21.024;2023-03-23T10:59:15;74746.69;;;-141.45;49.21
31403;BME280;18039;52.188;21.024;2023-03-23T11:01:49;74728.47;;;-141.45;48.37
31403;BME280;18039;52.188;21.024;2023-03-23T11:04:17;74700.09;;;-141.45;47.51
31403;BME280;18039;52.188;21.024;2023-03-23T11:06:47;74692.00;;;-141.45;47.72
31403;BME280;18039;52.188;21.024;2023-03-23T11:09:17;74679.84;;;-141.45;45.98
31403;BME280;18039;52.188;21.024;2023-03-23T11:11:50;74704.16;;;-141.45;44.68
31403;BME280;18039;52.188;21.024;2023-03-23T11:16:56;74708.22;;;-141.45;44.92
31403;BME280;18039;52.188;21.024;2023-03-23T11:19:29;74702.13;;;-141.45;44.32
31403;BME280;18039;52.188;21.024;2023-03-23T11:22:23;74692.00;;;-141.45;44.45
31403;BME280;18039;52.188;21.024;2023-03-23T11:24:53;74681.88;;;-141.45;45.07
31403;BME280;18039;52.188;21.024;2023-03-23T11:27:21;74679.84;;;-141.45;44.56
31403;BME280;18039;52.188;21.024;2023-03-23T11:29:52;74647.44;;;-141.45;44.64
31403;BME280;18039;52.188;21.024;2023-03-23T11:32:23;74633.25;;;-141.45;44.30
31403;BME280;18039;52.188;21.024;2023-03-23T11:34:54;74631.22;;;-141.45;44.70
31403;BME280;18039;52.188;21.024;2023-03-23T11:37:42;74623.13;;;-141.45;44.75
31403;BME280;18039;52.188;21.024;2023-03-23T11:42:49;74602.84;;;-141.45;43.93
31403;BME280;18039;52.188;21.024;2023-03-23T11:50:43;74631.22;;;-141.45;43.53
31403;BME280;18039;52.188;21.024;2023-03-23T11:58:15;74651.47;;;-141.45;44.80
31403;BME280;18039;52.188;21.024;2023-03-23T12:00:55;74661.59;;;-141.45;44.46
31403;BME280;18039;52.188;21.024;2023-03-23T12:06:05;74619.06;;;-141.45;44.96
31403;BME280;18039;52.188;21.024;2023-03-23T12:08:54;74619.06;;;-141.45;45.15
31403;BME280;18039;52.188;21.024;2023-03-23T12:14:27;74590.69;;;-141.45;45.36
31403;BME280;18039;52.188;21.024;2023-03-23T12:22:36;74562.34;;;-141.45;43.37
31403;BME280;18039;52.188;21.024;2023-03-23T12:30:38;74538.03;;;-141.45;43.66
31403;BME280;18039;52.188;21.024;2023-03-23T12:38:47;74513.72;;;-141.45;43.98
31403;BME280;18039;52.188;21.024;2023-03-23T12:44:12;74546.13;;;-141.45;44.19
31403;BME280;18039;52.188;21.024;2023-03-23T12:50:01;74598.81;;;-141.45;45.43
31403;BME280;18039;52.188;21.024;2023-03-23T12:52:38;74596.78;;;-141.45;45.76
31403;BME280;18039;52.188;21.024;2023-03-23T12:58:05;74590.69;;;-141.45;45.56
31403;BME280;18039;52.188;21.024;2023-03-23T13:03:28;74570.44;;;-141.45;45.32
31403;BME280;18039;52.188;21.024;2023-03-23T13:09:27;74615.00;;;-141.45;45.15
31403;BME280;18039;52.188;21.024;2023-03-23T13:11:56;74627.16;;;-141.45;45.07
31403;BME280;18039;52.188;21.024;2023-03-23T13:17:06;74655.53;;;-141.45;45.71
31403;BME280;18039;52.188;21.024;2023-03-23T13:20:02;74643.38;;;-141.45;45.22
31403;BME280;18039;52.188;21.024;2023-03-23T13:25:46;74651.47;;;-141.45;45.44
31403;BME280;18039;52.188;21.024;2023-03-23T13:28:17;74659.59;;;-141.45;45.90
31403;BME280;18039;52.188;21.024;2023-03-23T13:33:22;74712.25;;;-141.45;47.06
31403;BME280;18039;52.188;21.024;2023-03-23T13:35:49;74716.31;;;-141.45;47.29
31403;BME280;18039;52.188;21.024;2023-03-23T13:38:25;74720.38;;;-141.45;47.12
31403;BME280;18039;52.188;21.024;2023-03-23T13:40:53;74732.53;;;-141.45;46.98
31403;BME280;18039;52.188;21.024;2023-03-23T13:43:34;74734.53;;;-141.45;46.69
31403;BME280;18039;52.188;21.024;2023-03-23T13:46:30;74728.47;;;-141.45;46.57
31403;BME280;18039;52.188;21.024;2023-03-23T13:57:01;74704.16;;;-141.45;46.15
31403;BME280;18039;52.188;21.024;2023-03-23T13:59:47;74704.16;;;-141.45;46.12
31403;BME280;18039;52.188;21.024;2023-03-23T14:02:34;74692.00;;;-141.45;46.08
31403;BME280;18039;52.188;21.024;2023-03-23T14:07:58;74675.78;;;-141.45;45.87
31403;BME280;18039;52.188;21.024;2023-03-23T14:10:48;74700.09;;;-141.45;46.14
31403;BME280;18039;52.188;21.024;2023-03-23T14:13:23;74712.25;;;-141.45;46.55
31403;BME280;18039;52.188;21.024;2023-03-23T14:15:57;74732.53;;;-141.45;46.78
31403;BME280;18039;52.188;21.024;2023-03-23T14:18:27;74740.63;;;-141.45;47.34
31403;BME280;18039;52.188;21.024;2023-03-23T14:20:55;74760.88;;;-141.45;47.55
31403;BME280;18039;52.188;21.024;2023-03-23T14:23:22;74783.16;;;-141.45;47.54
31403;BME280;18039;52.188;21.024;2023-03-23T14:25:56;74793.31;;;-141.45;48.29
31403;BME280;18039;52.188;21.024;2023-03-23T14:28:31;74807.47;;;-141.45;48.42
31403;BME280;18039;52.188;21.024;2023-03-23T14:30:58;74823.69;;;-141.45;48.91
31403;BME280;18039;52.188;21.024;2023-03-23T14:33:25;74845.97;;;-141.45;49.73
31403;BME280;18039;52.188;21.024;2023-03-23T14:35:52;74850.03;;;-141.45;50.10
31403;BME280;18039;52.188;21.024;2023-03-23T14:38:21;74854.09;;;-141.45;50.13
31403;BME280;18039;52.188;21.024;2023-03-23T14:40:50;74866.25;;;-141.45;50.31
31403;BME280;18039;52.188;21.024;2023-03-23T14:43:19;74882.44;;;-141.45;50.70
31403;BME280;18039;52.188;21.024;2023-03-23T14:45:54;74868.25;;;-141.45;50.66
31403;BME280;18039;52.188;21.024;2023-03-23T14:48:22;74896.63;;;-141.45;51.09
31403;BME280;18039;52.188;21.024;2023-03-23T14:50:51;74902.72;;;-141.45;51.41